Time;durP1;ratioP1;P1;durP2;ratioP2;P2;SDS_P1;SDS_P2;PMS_P1;PMS_P2;Temp;Humidity;BMP_temperature;BMP_pressure;BME280_temperature;BME280_humidity;BME280_pressure;Samples;Min_cycle;Max_cycle;Signal;HPM_P1;HPM_P2
2022/05/08 00:00:13;;;;;;;4.10;3.80;;;17.20;55.50;;;;;;924446;150;27320;-73
2022/05/08 00:02:40;;;;;;;4.00;3.70;;;17.20;55.60;;;;;;940809;148;28051;-73
2022/05/08 00:05:06;;;;;;;3.83;3.53;;;17.10;55.60;;;;;;939280;148;27346;-73
2022/05/08 00:07:33;;;;;;;4.17;3.87;;;17.10;55.90;;;;;;940348;148;27353;-73
2022/05/08 00:09:59;;;;;;;3.90;3.60;;;17.00;56.00;;;;;;939502;148;27396;-73
2022/05/08 00:12:26;;;;;;;4.07;3.77;;;17.00;56.10;;;;;;941675;148;27309;-73
2022/05/08 00:14:52;;;;;;;4.97;4.07;;;16.90;56.30;;;;;;940952;148;27424;-73
2022/05/08 00:17:19;;;;;;;4.10;3.70;;;16.90;56.40;;;;;;941093;148;27375;-73
2022/05/08 00:19:48;;;;;;;4.30;3.90;;;16.80;56.60;;;;;;941843;148;27317;-73
2022/05/08 00:22:12;;;;;;;4.80;4.23;;;16.80;56.80;;;;;;937278;149;27376;-73
2022/05/08 00:24:39;;;;;;;4.23;3.93;;;16.70;56.90;;;;;;937834;149;27353;-73
2022/05/08 00:27:05;;;;;;;3.83;3.53;;;16.80;57.00;;;;;;939415;149;27386;-73
2022/05/08 00:29:32;;;;;;;3.97;3.60;;;16.70;57.00;;;;;;937132;149;27415;-73
2022/05/08 00:31:58;;;;;;;4.47;4.07;;;16.70;57.30;;;;;;939144;149;27340;-73
2022/05/08 00:34:25;;;;;;;4.23;3.90;;;16.70;57.20;;;;;;937902;149;27374;-73
2022/05/08 00:36:52;;;;;;;4.50;4.10;;;16.70;57.30;;;;;;938167;149;27368;-73
2022/05/08 00:39:20;;;;;;;5.10;4.60;;;16.70;57.60;;;;;;938169;149;27325;-73
2022/05/08 00:41:48;;;;;;;4.10;3.70;;;16.60;57.50;;;;;;939476;149;27336;-73
2022/05/08 00:44:15;;;;;;;4.57;4.03;;;16.60;57.60;;;;;;939458;149;27329;-73
2022/05/08 00:46:41;;;;;;;5.13;4.00;;;16.60;57.60;;;;;;937687;149;27399;-73
2022/05/08 00:49:08;;;;;;;5.17;4.67;;;16.60;57.70;;;;;;937634;149;27369;-73
2022/05/08 00:51:35;;;;;;;3.97;3.67;;;16.70;57.90;;;;;;938613;149;27345;-73
2022/05/08 00:54:01;;;;;;;4.50;4.10;;;16.70;57.90;;;;;;937791;149;27391;-73
2022/05/08 00:56:28;;;;;;;4.13;3.83;;;16.70;58.00;;;;;;937655;149;27367;-73
2022/05/08 00:58:54;;;;;;;4.23;3.90;;;16.70;58.10;;;;;;936232;149;27350;-73
2022/05/08 01:01:21;;;;;;;4.42;4.03;;;16.70;58.10;;;;;;938666;149;27450;-73
2022/05/08 01:03:47;;;;;;;4.50;4.10;;;16.70;58.10;;;;;;936984;149;27791;-73
2022/05/08 01:06:14;;;;;;;4.60;4.20;;;16.70;58.20;;;;;;936848;149;27359;-73
2022/05/08 01:08:43;;;;;;;4.27;3.97;;;16.70;58.10;;;;;;936039;149;27265;-73
2022/05/08 01:11:10;;;;;;;4.70;4.30;;;16.60;58.20;;;;;;934998;151;27486;-73
2022/05/08 01:13:36;;;;;;;4.87;4.43;;;16.60;58.10;;;;;;934788;153;27369;-73
2022/05/08 01:16:03;;;;;;;4.70;4.30;;;16.50;58.30;;;;;;934996;152;27434;-73
2022/05/08 01:18:29;;;;;;;4.93;4.53;;;16.50;58.30;;;;;;933811;150;27355;-73
2022/05/08 01:20:56;;;;;;;4.30;3.97;;;16.40;58.40;;;;;;934447;150;27353;-73
2022/05/08 01:23:23;;;;;;;4.80;4.40;;;16.40;58.60;;;;;;935959;150;27904;-73
2022/05/08 01:25:52;;;;;;;5.27;4.60;;;16.30;58.70;;;;;;933392;152;27356;-73
2022/05/08 01:28:19;;;;;;;5.60;4.87;;;16.30;58.70;;;;;;935735;152;27421;-73
2022/05/08 01:30:45;;;;;;;4.17;3.87;;;16.30;58.90;;;;;;933166;152;27342;-73
2022/05/08 01:33:12;;;;;;;6.43;4.50;;;16.20;59.00;;;;;;936407;153;27660;-73
2022/05/08 01:35:38;;;;;;;5.57;5.07;;;16.20;59.00;;;;;;933113;152;27325;-73
2022/05/08 01:38:05;;;;;;;4.70;4.30;;;16.10;59.20;;;;;;935346;152;27440;-73
2022/05/08 01:40:31;;;;;;;5.17;4.77;;;16.10;58.80;;;;;;933043;153;27340;-73
2022/05/08 01:42:58;;;;;;;5.30;4.80;;;16.10;59.50;;;;;;931282;153;27473;-73
2022/05/08 01:45:25;;;;;;;4.97;4.57;;;16.00;59.40;;;;;;933751;152;27444;-73
2022/05/08 01:50:36;;;;;;;5.23;4.83;;;15.90;59.70;;;;;;935308;152;28192;-73
2022/05/08 01:53:03;;;;;;;5.17;4.77;;;15.90;59.70;;;;;;935960;152;27384;-73
2022/05/08 01:55:29;;;;;;;5.37;4.97;;;15.80;60.00;;;;;;932875;152;27392;-73
2022/05/08 01:57:56;;;;;;;7.50;5.83;;;15.70;60.00;;;;;;933285;152;27373;-73
2022/05/08 02:00:22;;;;;;;5.40;5.00;;;15.60;60.10;;;;;;933459;150;27297;-73
2022/05/08 02:02:49;;;;;;;5.63;5.13;;;15.60;60.30;;;;;;932527;152;27450;-73
2022/05/08 02:05:18;;;;;;;5.40;4.90;;;15.50;60.60;;;;;;932871;152;27389;-73
2022/05/08 02:07:45;;;;;;;5.67;5.17;;;15.50;60.70;;;;;;933653;153;27440;-73
2022/05/08 02:10:12;;;;;;;6.23;5.67;;;15.40;60.90;;;;;;936557;150;27382;-73
2022/05/08 02:12:38;;;;;;;5.47;5.07;;;15.30;61.00;;;;;;937744;149;27300;-73
2022/05/08 02:15:05;;;;;;;6.03;5.53;;;15.20;61.20;;;;;;937881;149;27803;-73
2022/05/08 02:17:31;;;;;;;5.10;4.70;;;15.20;61.40;;;;;;937010;149;27745;-73
2022/05/08 02:19:58;;;;;;;5.37;4.87;;;15.10;61.50;;;;;;938900;149;27398;-73
2022/05/08 02:22:25;;;;;;;5.53;5.07;;;15.10;61.80;;;;;;939628;149;27351;-73
2022/05/08 02:24:51;;;;;;;5.30;4.87;;;15.00;61.90;;;;;;937298;149;27718;-73
2022/05/08 02:27:18;;;;;;;5.37;4.97;;;14.90;62.00;;;;;;938658;149;27358;-74
2022/05/08 02:29:50;;;;;;;8.07;5.80;;;14.80;62.20;;;;;;939673;149;27467;-73
2022/05/08 02:32:17;;;;;;;6.77;4.80;;;14.80;62.40;;;;;;937962;149;27340;-73
2022/05/08 02:34:43;;;;;;;5.97;5.47;;;14.70;62.40;;;;;;938349;149;27270;-73
2022/05/08 02:37:10;;;;;;;5.93;5.33;;;14.70;62.70;;;;;;937039;149;27418;-73
2022/05/08 02:39:36;;;;;;;6.13;5.63;;;14.60;62.80;;;;;;938911;149;27970;-73
2022/05/08 02:42:03;;;;;;;6.87;6.33;;;14.60;63.10;;;;;;937268;149;27366;-73
2022/05/08 02:44:30;;;;;;;6.37;5.77;;;14.50;63.20;;;;;;938526;149;27817;-73
2022/05/08 02:46:56;;;;;;;8.63;6.17;;;14.40;63.30;;;;;;937742;149;27325;-72
2022/05/08 02:49:23;;;;;;;6.20;5.70;;;14.40;63.40;;;;;;937910;149;27639;-73
2022/05/08 02:51:50;;;;;;;6.93;6.23;;;14.40;63.60;;;;;;936406;149;27376;-73
2022/05/08 02:54:16;;;;;;;6.23;5.63;;;14.30;63.80;;;;;;938920;149;27992;-73
2022/05/08 02:59:27;;;;;;;7.23;6.53;;;14.30;64.50;;;;;;937637;149;27354;-73
2022/05/08 03:01:55;;;;;;;9.77;7.67;;;14.20;64.20;;;;;;938019;149;27648;-72
2022/05/08 03:04:20;;;;;;;6.80;6.10;;;14.20;64.60;;;;;;937876;149;27375;-73
2022/05/08 03:06:47;;;;;;;6.63;5.90;;;14.10;64.70;;;;;;938512;149;27343;-73
2022/05/08 03:09:14;;;;;;;6.20;5.70;;;14.10;64.70;;;;;;940464;149;27456;-73
2022/05/08 03:11:40;;;;;;;6.67;6.07;;;14.10;65.00;;;;;;930010;151;27412;-73
2022/05/08 03:14:07;;;;;;;6.83;6.13;;;14.00;65.40;;;;;;923468;154;27427;-73
2022/05/08 03:16:33;;;;;;;7.20;6.60;;;14.00;65.60;;;;;;926149;154;27329;-73
2022/05/08 03:19:00;;;;;;;6.77;6.20;;;14.00;65.70;;;;;;924446;151;27351;-73
2022/05/08 03:21:27;;;;;;;7.23;6.53;;;13.90;65.60;;;;;;939733;151;27920;-73
2022/05/08 03:23:53;;;;;;;6.47;5.87;;;13.90;65.80;;;;;;940889;149;27433;-73
2022/05/08 03:26:20;;;;;;;7.50;6.80;;;13.90;65.80;;;;;;940467;151;27382;-73
2022/05/08 03:28:46;;;;;;;7.00;6.37;;;13.90;66.10;;;;;;941520;151;27254;-73
2022/05/08 03:31:13;;;;;;;7.33;6.63;;;13.80;66.30;;;;;;940781;151;27695;-73
2022/05/08 03:33:39;;;;;;;7.33;6.60;;;13.80;66.40;;;;;;942834;151;27371;-73
2022/05/08 03:36:06;;;;;;;8.03;6.90;;;13.80;66.50;;;;;;941585;149;27345;-72
2022/05/08 03:38:33;;;;;;;7.97;7.17;;;13.80;66.70;;;;;;940329;151;27373;-72
2022/05/08 03:40:59;;;;;;;7.40;6.70;;;13.70;66.70;;;;;;941214;149;27352;-72
2022/05/08 03:43:27;;;;;;;6.83;6.13;;;13.70;66.90;;;;;;939783;151;27459;-73
2022/05/08 03:45:52;;;;;;;7.07;6.47;;;13.70;67.20;;;;;;941028;149;27373;-73
2022/05/08 03:48:19;;;;;;;7.17;6.57;;;13.70;67.30;;;;;;940968;149;27379;-73
2022/05/08 03:50:46;;;;;;;6.87;6.10;;;13.70;67.60;;;;;;938911;151;27385;-73
2022/05/08 03:53:12;;;;;;;7.00;6.30;;;13.70;67.70;;;;;;938973;151;27324;-73
2022/05/08 03:55:39;;;;;;;7.00;6.30;;;13.60;67.70;;;;;;940884;151;27287;-73
2022/05/08 03:58:05;;;;;;;8.57;7.13;;;13.60;67.90;;;;;;927039;151;27334;-73
2022/05/08 04:00:32;;;;;;;6.50;5.90;;;13.60;68.20;;;;;;925102;151;27482;-73
2022/05/08 04:03:00;;;;;;;6.93;6.33;;;13.60;68.40;;;;;;924485;151;27459;-73
2022/05/08 04:05:25;;;;;;;6.67;6.17;;;13.60;68.50;;;;;;923723;151;28863;-73
2022/05/08 04:07:52;;;;;;;6.97;6.37;;;13.60;68.80;;;;;;926125;151;27453;-73
2022/05/08 04:10:18;;;;;;;6.60;6.00;;;13.60;68.90;;;;;;924210;151;27382;-73
2022/05/08 04:12:47;;;;;;;6.37;5.77;;;13.60;69.10;;;;;;941402;148;27357;-73
2022/05/08 04:17:56;;;;;;;7.13;6.53;;;13.60;69.20;;;;;;941519;149;27507;-75
2022/05/08 04:20:23;;;;;;;6.87;6.27;;;13.60;69.30;;;;;;939537;151;27479;-75
2022/05/08 04:25:34;;;;;;;7.20;6.60;;;13.60;69.70;;;;;;939540;151;27436;-73
2022/05/08 04:28:01;;;;;;;7.67;6.97;;;13.60;69.90;;;;;;940432;151;27423;-72
2022/05/08 04:30:27;;;;;;;7.97;7.17;;;13.60;70.10;;;;;;941216;151;27349;-72
2022/05/08 04:32:54;;;;;;;7.20;6.60;;;13.70;70.00;;;;;;940120;151;27444;-72
2022/05/08 04:35:21;;;;;;;8.17;7.07;;;13.70;70.30;;;;;;940071;151;27338;-72
2022/05/08 04:37:47;;;;;;;6.47;5.97;;;13.70;70.60;;;;;;940893;151;27362;-72
2022/05/08 04:40:14;;;;;;;7.50;6.80;;;13.80;70.30;;;;;;941420;151;27309;-72
2022/05/08 04:42:40;;;;;;;7.73;6.63;;;13.80;70.50;;;;;;939614;151;27377;-72
2022/05/08 04:45:07;;;;;;;7.23;6.63;;;13.90;70.60;;;;;;940731;151;27479;-72
2022/05/08 04:47:34;;;;;;;7.03;6.33;;;14.00;70.70;;;;;;941093;151;27357;-72
2022/05/08 04:50:00;;;;;;;6.87;6.27;;;14.10;70.90;;;;;;940195;151;27355;-72
2022/05/08 04:52:27;;;;;;;7.27;6.33;;;14.10;71.00;;;;;;941843;151;27407;-72
2022/05/08 04:54:54;;;;;;;7.27;5.93;;;14.20;71.40;;;;;;941365;151;27343;-73
2022/05/08 04:57:20;;;;;;;6.40;5.80;;;14.40;72.00;;;;;;939690;151;27349;-72
2022/05/08 04:59:47;;;;;;;6.47;5.97;;;14.60;72.80;;;;;;940575;151;27881;-72
2022/05/08 05:02:14;;;;;;;6.50;5.83;;;14.90;73.10;;;;;;939622;151;27413;-73
2022/05/08 05:04:40;;;;;;;6.07;5.57;;;15.20;73.30;;;;;;924283;154;27384;-73
2022/05/08 05:07:08;;;;;;;5.53;5.13;;;15.60;73.50;;;;;;924773;152;27288;-72
2022/05/08 05:09:33;;;;;;;5.22;4.78;;;16.00;73.60;;;;;;926058;154;27415;-73
2022/05/08 05:12:00;;;;;;;5.60;5.00;;;16.40;73.20;;;;;;927209;151;27490;-72
2022/05/08 05:14:26;;;;;;;4.83;4.42;;;16.90;72.90;;;;;;940350;151;27404;-73
2022/05/08 05:16:53;;;;;;;5.05;4.60;;;17.40;72.50;;;;;;940078;151;27296;-72
2022/05/08 05:19:19;;;;;;;5.00;4.62;;;17.90;71.90;;;;;;929234;151;27416;-72
2022/05/08 05:21:46;;;;;;;5.40;4.92;;;18.40;70.90;;;;;;940057;151;27395;-73
2022/05/08 05:24:13;;;;;;;4.75;4.35;;;18.90;69.90;;;;;;940050;151;27365;-73
2022/05/08 05:26:39;;;;;;;4.90;4.47;;;19.40;68.80;;;;;;942111;151;27402;-73
2022/05/08 05:29:06;;;;;;;4.53;4.12;;;19.80;67.70;;;;;;929547;151;27347;-73
2022/05/08 05:31:32;;;;;;;4.03;3.72;;;20.20;66.70;;;;;;928768;152;27455;-73
2022/05/08 05:33:59;;;;;;;4.00;3.70;;;20.60;66.00;;;;;;942211;149;27464;-73
2022/05/08 05:36:26;;;;;;;4.12;3.67;;;21.00;65.10;;;;;;941300;149;27331;-73
2022/05/08 05:38:52;;;;;;;3.92;3.58;;;21.40;64.20;;;;;;941964;151;27357;-73
2022/05/08 05:41:19;;;;;;;3.95;3.45;;;21.80;63.50;;;;;;940928;151;28244;-73
2022/05/08 05:43:45;;;;;;;4.03;3.70;;;22.20;62.80;;;;;;941374;151;27327;-73
2022/05/08 05:48:57;;;;;;;3.60;3.35;;;23.00;61.30;;;;;;923510;154;27441;-73
2022/05/08 05:51:23;;;;;;;3.80;3.52;;;23.50;60.00;;;;;;929200;151;27460;-73
2022/05/08 05:53:50;;;;;;;3.33;3.02;;;23.90;60.10;;;;;;941858;150;27445;-73
2022/05/08 05:56:16;;;;;;;3.60;3.30;;;24.30;58.90;;;;;;941160;149;27852;-73
2022/05/08 05:58:43;;;;;;;3.95;3.65;;;24.70;58.20;;;;;;941313;151;27304;-73
2022/05/08 06:01:10;;;;;;;3.55;3.30;;;25.00;57.30;;;;;;940645;151;27283;-73
2022/05/08 06:03:38;;;;;;;3.25;3.05;;;25.30;57.30;;;;;;940997;149;27392;-73
2022/05/08 06:06:03;;;;;;;3.33;3.10;;;25.60;55.80;;;;;;939511;151;27370;-73
2022/05/08 06:08:29;;;;;;;2.67;2.52;;;25.80;55.50;;;;;;940434;151;27386;-73
2022/05/08 06:10:56;;;;;;;2.87;2.60;;;26.10;55.00;;;;;;939526;151;27275;-73
2022/05/08 06:13:23;;;;;;;3.10;2.85;;;26.30;54.70;;;;;;941040;148;27377;-73
2022/05/08 06:15:49;;;;;;;2.60;2.50;;;26.60;54.40;;;;;;938833;148;27810;-74
2022/05/08 06:18:16;;;;;;;2.67;2.47;;;26.80;53.50;;;;;;938954;148;28030;-73
2022/05/08 06:20:42;;;;;;;2.85;2.65;;;26.80;52.60;;;;;;927983;150;27376;-73
2022/05/08 06:23:09;;;;;;;2.67;2.50;;;26.80;51.60;;;;;;923037;150;27301;-73
2022/05/08 06:28:00;;;;;;;2.85;2.65;;;26.60;51.00;;;;;;970593;145;38495;-72
2022/05/08 06:30:27;;;;;;;3.02;2.77;;;26.10;50.60;;;;;;958914;149;27311;-72
2022/05/08 06:32:54;;;;;;;4.12;3.05;;;25.70;50.80;;;;;;959654;149;27289;-72
2022/05/08 06:35:20;;;;;;;3.12;2.92;;;25.40;50.60;;;;;;959242;149;27343;-72
2022/05/08 06:37:47;;;;;;;3.35;3.10;;;25.10;51.00;;;;;;958467;148;27421;-72
2022/05/08 06:40:13;;;;;;;3.35;3.15;;;24.80;51.30;;;;;;958585;149;27275;-72
2022/05/08 06:42:40;;;;;;;3.80;3.22;;;24.50;51.50;;;;;;959492;149;27262;-72
2022/05/08 06:45:07;;;;;;;3.12;2.90;;;24.30;51.80;;;;;;960181;149;27408;-72
2022/05/08 06:47:33;;;;;;;3.15;2.95;;;24.00;52.10;;;;;;958975;149;27288;-72
2022/05/08 06:50:00;;;;;;;2.65;2.45;;;23.80;52.60;;;;;;960037;146;27358;-72
2022/05/08 06:52:27;;;;;;;2.50;2.30;;;23.70;52.80;;;;;;958920;149;27302;-72
2022/05/08 06:54:53;;;;;;;2.75;2.55;;;23.50;53.10;;;;;;959163;149;27359;-72
2022/05/08 06:57:20;;;;;;;2.72;2.52;;;23.40;53.40;;;;;;959361;148;27236;-72
2022/05/08 07:02:31;;;;;;;2.92;2.55;;;23.50;54.30;;;;;;960069;149;27387;-72
2022/05/08 07:04:58;;;;;;;2.90;2.70;;;23.70;54.70;;;;;;959922;149;27387;-72
2022/05/08 07:07:24;;;;;;;3.08;2.87;;;24.10;55.10;;;;;;959951;148;28192;-72
2022/05/08 07:09:51;;;;;;;3.08;2.77;;;24.50;55.60;;;;;;959643;148;27303;-72
2022/05/08 07:12:17;;;;;;;3.33;3.02;;;25.00;55.40;;;;;;958643;148;27312;-72
2022/05/08 07:14:44;;;;;;;2.72;2.58;;;25.60;55.00;;;;;;959794;148;27333;-72
2022/05/08 07:17:10;;;;;;;2.70;2.50;;;26.30;54.70;;;;;;958437;148;27362;-73
2022/05/08 07:19:38;;;;;;;2.80;2.60;;;27.00;54.40;;;;;;959983;149;27328;-72
2022/05/08 07:22:04;;;;;;;2.60;2.40;;;27.70;53.80;;;;;;959493;148;27328;-73
2022/05/08 07:24:30;;;;;;;2.42;2.22;;;28.40;53.20;;;;;;959671;146;27330;-73
2022/05/08 07:26:57;;;;;;;4.20;2.72;;;29.20;52.20;;;;;;957796;148;27706;-73
2022/05/08 07:29:23;;;;;;;2.65;2.45;;;29.80;50.90;;;;;;952928;149;27333;-73
2022/05/08 07:31:50;;;;;;;2.60;2.40;;;30.50;50.30;;;;;;953336;149;27344;-73
2022/05/08 07:37:01;;;;;;;2.35;2.15;;;31.60;48.70;;;;;;954294;149;27310;-73
2022/05/08 07:39:28;;;;;;;2.50;2.30;;;32.10;47.80;;;;;;953439;149;27387;-73
2022/05/08 07:41:55;;;;;;;2.40;2.30;;;32.40;45.80;;;;;;953010;149;27358;-73
2022/05/08 07:44:21;;;;;;;2.45;2.25;;;32.70;46.00;;;;;;952845;149;27380;-73
2022/05/08 07:46:48;;;;;;;3.15;2.33;;;32.90;45.60;;;;;;953812;149;27426;-73
2022/05/08 07:49:14;;;;;;;2.75;2.12;;;33.20;45.40;;;;;;952218;149;27294;-73
2022/05/08 07:51:41;;;;;;;2.15;2.00;;;33.50;44.80;;;;;;953165;149;27333;-73
2022/05/08 07:54:08;;;;;;;2.98;2.37;;;33.80;44.30;;;;;;953838;149;27298;-74
2022/05/08 07:56:34;;;;;;;2.47;2.33;;;34.20;44.30;;;;;;952572;149;26237;-73
2022/05/08 07:59:01;;;;;;;2.58;2.37;;;34.60;43.00;;;;;;952920;150;27328;-73
2022/05/08 08:01:27;;;;;;;2.58;2.37;;;34.80;42.60;;;;;;953025;149;26237;-73
2022/05/08 08:03:54;;;;;;;2.65;2.45;;;35.10;42.10;;;;;;953282;149;27607;-73
2022/05/08 08:06:21;;;;;;;2.05;1.92;;;35.30;42.00;;;;;;953125;149;26320;-73
2022/05/08 08:08:47;;;;;;;2.52;2.30;;;35.50;41.50;;;;;;953607;150;27362;-73
2022/05/08 08:11:14;;;;;;;3.15;2.12;;;35.70;41.00;;;;;;953251;150;26272;-73
2022/05/08 08:13:40;;;;;;;2.50;2.40;;;35.90;40.80;;;;;;953651;149;26248;-73
2022/05/08 08:16:07;;;;;;;2.33;2.12;;;36.20;40.40;;;;;;953075;149;26224;-73
2022/05/08 08:18:34;;;;;;;2.22;2.12;;;36.40;40.00;;;;;;951953;149;26257;-74
2022/05/08 08:21:00;;;;;;;2.20;2.00;;;36.60;39.40;;;;;;952825;149;27309;-73
2022/05/08 08:23:30;;;;;;;2.37;2.27;;;36.70;39.10;;;;;;952901;147;26272;-74
2022/05/08 08:25:56;;;;;;;2.35;2.25;;;36.90;38.90;;;;;;953474;149;26205;-74
2022/05/08 08:28:22;;;;;;;2.55;2.37;;;37.00;38.80;;;;;;953090;149;26228;-73
2022/05/08 08:30:49;;;;;;;2.37;2.17;;;37.20;38.40;;;;;;953441;149;26334;-73
2022/05/08 08:33:15;;;;;;;4.22;3.02;;;37.40;38.00;;;;;;953278;149;26206;-73
2022/05/08 08:35:42;;;;;;;3.10;2.30;;;37.50;37.10;;;;;;953313;149;26241;-73
2022/05/08 08:38:09;;;;;;;2.55;2.35;;;37.60;36.70;;;;;;954072;149;28141;-73
2022/05/08 08:40:41;;;;;;;2.72;2.55;;;37.70;36.60;;;;;;953593;149;26310;-73
2022/05/08 08:43:11;;;;;;;3.22;2.60;;;37.80;36.70;;;;;;953081;149;26618;-73
2022/05/08 08:48:27;;;;;;;4.67;2.50;;;38.10;36.60;;;;;;952544;149;26392;-73
2022/05/08 08:50:54;;;;;;;2.33;2.22;;;38.40;36.20;;;;;;952569;149;26329;-74
2022/05/08 08:53:21;;;;;;;2.75;2.55;;;38.50;36.00;;;;;;952677;149;26244;-74
2022/05/08 08:55:47;;;;;;;2.60;2.40;;;38.70;36.00;;;;;;953113;148;26236;-73
2022/05/08 08:58:14;;;;;;;2.33;2.22;;;39.00;35.20;;;;;;951967;149;27369;-74
2022/05/08 09:00:40;;;;;;;2.65;2.45;;;39.20;34.30;;;;;;952946;149;26241;-73
2022/05/08 09:03:07;;;;;;;1.98;1.87;;;39.30;34.20;;;;;;952806;149;27401;-73
2022/05/08 09:05:33;;;;;;;2.20;2.00;;;39.40;33.80;;;;;;952799;149;26358;-74
2022/05/08 09:08:00;;;;;;;2.40;2.20;;;39.40;33.70;;;;;;952605;149;27419;-74
2022/05/08 09:10:35;;;;;;;3.70;2.35;;;39.50;33.80;;;;;;953050;149;26265;-73
2022/05/08 09:12:59;;;;;;;2.40;2.12;;;39.60;33.70;;;;;;952819;150;27684;-73
2022/05/08 09:15:31;;;;;;;2.33;2.12;;;39.70;33.40;;;;;;952938;149;26346;-73
2022/05/08 09:18:01;;;;;;;2.12;2.02;;;39.80;33.10;;;;;;952970;149;26394;-74
2022/05/08 09:20:30;;;;;;;2.42;2.30;;;39.80;32.80;;;;;;953076;147;26337;-74
2022/05/08 09:22:59;;;;;;;2.27;2.12;;;39.80;32.60;;;;;;952403;147;26209;-73
2022/05/08 09:25:31;;;;;;;2.55;2.35;;;39.90;32.50;;;;;;953059;147;27828;-73
2022/05/08 09:28:01;;;;;;;2.30;2.20;;;39.80;32.30;;;;;;937943;147;26334;-74
2022/05/08 09:30:27;;;;;;;2.15;2.05;;;39.80;32.30;;;;;;968428;147;26250;-74
2022/05/08 09:32:54;;;;;;;2.45;2.12;;;39.80;32.00;;;;;;969708;145;26211;-73
2022/05/08 09:35:20;;;;;;;2.52;2.40;;;39.80;32.00;;;;;;968706;147;26214;-73
2022/05/08 09:37:53;;;;;;;2.80;2.60;;;39.50;31.40;;;;;;969556;145;26178;-73
2022/05/08 09:40:20;;;;;;;2.72;2.47;;;39.40;30.80;;;;;;968668;147;26227;-73
2022/05/08 09:42:47;;;;;;;2.22;2.05;;;38.90;31.00;;;;;;969473;147;26373;-74
2022/05/08 09:45:13;;;;;;;2.45;2.35;;;38.60;31.30;;;;;;969119;147;26557;-73
2022/05/08 09:47:48;;;;;;;2.47;2.27;;;38.20;31.50;;;;;;969899;147;26242;-73
2022/05/08 09:50:15;;;;;;;2.65;2.12;;;37.90;31.80;;;;;;969201;147;26350;-73
2022/05/08 09:52:42;;;;;;;2.50;2.22;;;37.70;32.20;;;;;;969033;147;26219;-73
2022/05/08 09:55:08;;;;;;;2.75;2.37;;;37.50;32.30;;;;;;968982;147;26262;-73
2022/05/08 09:57:35;;;;;;;2.42;2.20;;;37.30;32.40;;;;;;968611;147;26351;-74
2022/05/08 10:00:02;;;;;;;2.37;2.20;;;37.10;32.30;;;;;;968433;147;26258;-73
2022/05/08 10:02:28;;;;;;;2.50;2.30;;;36.80;32.10;;;;;;968551;147;27240;-73
2022/05/08 10:04:55;;;;;;;2.50;2.40;;;36.50;32.40;;;;;;969757;147;26242;-74
2022/05/08 10:07:21;;;;;;;2.55;2.30;;;36.20;33.00;;;;;;970074;147;27420;-73
2022/05/08 10:15:20;;;;;;;2.60;2.40;;;35.30;32.70;;;;;;969618;147;27275;-73
2022/05/08 10:17:47;;;;;;;2.67;2.47;;;34.90;32.90;;;;;;961647;147;27395;-73
2022/05/08 10:20:13;;;;;;;3.12;2.40;;;34.60;33.20;;;;;;969167;145;27392;-73
2022/05/08 10:22:46;;;;;;;3.47;2.55;;;34.20;32.90;;;;;;969785;147;27379;-73
2022/05/08 10:25:16;;;;;;;2.45;2.25;;;33.90;33.30;;;;;;969112;147;27354;-73
2022/05/08 10:27:43;;;;;;;2.10;1.98;;;33.60;33.30;;;;;;969690;147;27319;-73
2022/05/08 10:30:09;;;;;;;2.55;2.37;;;33.30;33.60;;;;;;951738;148;27341;-73
2022/05/08 10:32:35;;;;;;;2.42;2.22;;;32.90;33.80;;;;;;949854;149;27288;-73
2022/05/08 10:35:08;;;;;;;2.67;2.50;;;32.60;34.20;;;;;;951868;150;27374;-73
2022/05/08 10:37:34;;;;;;;2.35;2.25;;;32.30;34.50;;;;;;950574;150;27351;-73
2022/05/08 10:40:01;;;;;;;2.80;2.60;;;32.10;34.80;;;;;;951547;150;27266;-74
2022/05/08 10:42:33;;;;;;;2.90;2.67;;;31.90;35.10;;;;;;950564;148;27394;-73
2022/05/08 10:44:57;;;;;;;2.60;2.40;;;31.70;35.30;;;;;;951183;150;27333;-73
2022/05/08 10:47:33;;;;;;;2.60;2.40;;;31.50;35.30;;;;;;950581;148;27313;-73
2022/05/08 10:50:05;;;;;;;3.33;2.60;;;31.30;35.50;;;;;;950725;150;27367;-73
2022/05/08 10:52:31;;;;;;;2.83;2.62;;;31.10;35.90;;;;;;952244;147;27430;-73
2022/05/08 10:55:01;;;;;;;4.30;2.95;;;30.90;36.30;;;;;;952841;147;27433;-73
2022/05/08 10:57:33;;;;;;;2.67;2.47;;;30.70;36.20;;;;;;952188;147;27425;-73
2022/05/08 11:00:03;;;;;;;2.90;2.70;;;30.60;36.20;;;;;;951101;147;27356;-73
2022/05/08 11:02:55;;;;;;;2.60;2.47;;;30.50;36.60;;;;;;950630;147;27463;-73
2022/05/08 11:05:22;;;;;;;2.47;2.27;;;30.50;36.90;;;;;;950096;149;27405;-73
2022/05/08 11:07:52;;;;;;;2.90;2.70;;;30.50;37.10;;;;;;951673;147;27459;-73
2022/05/08 11:10:24;;;;;;;2.40;2.20;;;30.50;37.00;;;;;;951883;149;27341;-73
2022/05/08 11:12:59;;;;;;;2.20;2.10;;;30.50;37.00;;;;;;951649;147;27357;-73
2022/05/08 11:15:26;;;;;;;3.22;2.10;;;30.50;37.30;;;;;;952651;149;27253;-73
2022/05/08 11:18:10;;;;;;;2.67;2.47;;;30.50;37.30;;;;;;949525;147;27688;-73
2022/05/08 11:20:46;;;;;;;2.60;2.40;;;30.60;37.70;;;;;;951529;149;27496;-73
2022/05/08 11:23:12;;;;;;;2.50;2.30;;;30.60;37.50;;;;;;950432;149;27403;-73
2022/05/08 11:25:39;;;;;;;2.52;2.33;;;30.70;37.60;;;;;;951818;147;27350;-73
2022/05/08 11:28:05;;;;;;;2.95;2.65;;;30.80;37.50;;;;;;949563;147;27314;-73
2022/05/08 11:30:32;;;;;;;2.35;2.20;;;30.80;37.40;;;;;;950811;148;27487;-73
2022/05/08 11:36:04;;;;;;;2.40;2.30;;;30.70;37.20;;;;;;952420;147;27395;-73
2022/05/08 11:38:50;;;;;;;3.10;2.80;;;30.70;37.10;;;;;;951051;147;27394;-73
2022/05/08 11:41:15;;;;;;;2.75;2.55;;;30.60;37.10;;;;;;950276;147;27383;-73
2022/05/08 11:43:42;;;;;;;2.40;2.30;;;30.60;37.20;;;;;;952119;149;27318;-73
2022/05/08 11:46:09;;;;;;;2.08;1.92;;;30.50;37.10;;;;;;952471;149;27344;-73
2022/05/08 11:48:40;;;;;;;2.42;2.22;;;30.40;37.20;;;;;;950536;147;27556;-73
2022/05/08 11:51:04;;;;;;;3.40;2.20;;;30.30;37.20;;;;;;950263;147;27317;-73
2022/05/08 11:53:45;;;;;;;3.05;2.60;;;30.20;37.50;;;;;;949420;147;27375;-73
2022/05/08 11:56:30;;;;;;;3.30;3.00;;;30.20;37.80;;;;;;950629;147;27339;-73
2022/05/08 11:58:57;;;;;;;2.70;2.50;;;30.20;37.90;;;;;;950632;147;27344;-73
2022/05/08 12:01:29;;;;;;;2.92;2.72;;;30.10;38.00;;;;;;950664;147;27357;-73
2022/05/08 12:03:56;;;;;;;3.30;2.67;;;30.10;38.10;;;;;;949708;147;27341;-73
2022/05/08 12:06:22;;;;;;;2.27;2.17;;;30.00;38.30;;;;;;950767;149;27300;-73
2022/05/08 12:08:49;;;;;;;2.72;2.52;;;29.90;38.30;;;;;;951600;147;27349;-73
2022/05/08 12:11:27;;;;;;;2.75;2.55;;;29.90;38.40;;;;;;951689;150;27339;-73
2022/05/08 12:14:06;;;;;;;2.83;2.62;;;29.80;38.60;;;;;;951718;149;27315;-73
2022/05/08 12:16:33;;;;;;;2.42;2.22;;;29.70;38.70;;;;;;952415;149;27367;-73
2022/05/08 12:19:15;;;;;;;3.00;2.80;;;29.70;38.60;;;;;;950817;147;27382;-73
2022/05/08 12:21:40;;;;;;;2.77;2.58;;;29.70;38.50;;;;;;951702;147;27430;-73
2022/05/08 12:24:10;;;;;;;2.98;2.67;;;29.70;38.50;;;;;;951600;147;27425;-73
2022/05/08 12:26:37;;;;;;;2.58;2.27;;;29.70;38.70;;;;;;950489;149;27415;-73
2022/05/08 12:29:03;;;;;;;2.42;2.20;;;29.60;38.90;;;;;;951413;149;27348;-73
2022/05/08 12:31:30;;;;;;;2.75;2.45;;;29.50;39.30;;;;;;950520;149;27373;-73
2022/05/08 12:33:56;;;;;;;3.30;2.27;;;29.40;39.10;;;;;;949997;149;27478;-73
2022/05/08 12:36:23;;;;;;;3.50;2.10;;;29.10;38.80;;;;;;951503;149;27759;-73
2022/05/08 12:38:49;;;;;;;1.75;1.65;;;28.80;38.50;;;;;;951508;149;27301;-73
2022/05/08 12:41:16;;;;;;;3.05;2.05;;;28.40;38.40;;;;;;951445;149;27353;-73
2022/05/08 12:43:43;;;;;;;2.60;2.20;;;28.00;39.10;;;;;;951936;149;27317;-72
2022/05/08 12:46:09;;;;;;;2.20;2.00;;;27.60;40.30;;;;;;951524;149;27325;-72
2022/05/08 12:48:36;;;;;;;2.58;1.90;;;27.20;41.30;;;;;;950326;147;27766;-72
2022/05/08 12:51:03;;;;;;;2.50;2.30;;;26.70;42.10;;;;;;952091;148;27238;-72
2022/05/08 12:53:29;;;;;;;2.00;1.90;;;26.10;42.80;;;;;;951201;149;27373;-72
2022/05/08 12:55:56;;;;;;;4.00;2.00;;;25.50;43.60;;;;;;952733;149;27268;-72
2022/05/08 13:01:07;;;;;;;2.67;2.30;;;24.40;44.50;;;;;;951231;149;27354;-72
2022/05/08 13:03:33;;;;;;;2.60;2.40;;;23.90;45.40;;;;;;951501;149;28850;-72
2022/05/08 13:06:00;;;;;;;2.80;2.60;;;23.50;46.90;;;;;;952430;149;27320;-72
2022/05/08 13:08:27;;;;;;;3.00;2.80;;;23.20;48.20;;;;;;951543;149;27288;-72
2022/05/08 13:10:53;;;;;;;2.50;2.30;;;22.90;49.00;;;;;;952036;149;27305;-72
2022/05/08 13:13:20;;;;;;;2.42;2.22;;;22.60;49.60;;;;;;950745;146;27369;-72
2022/05/08 13:15:46;;;;;;;2.20;2.10;;;22.40;50.00;;;;;;952168;149;27462;-72
2022/05/08 13:18:13;;;;;;;2.42;1.98;;;22.30;50.30;;;;;;949168;149;27369;-72
2022/05/08 13:20:40;;;;;;;2.08;1.95;;;22.10;51.30;;;;;;951835;149;27326;-72
2022/05/08 13:23:06;;;;;;;2.15;2.05;;;22.00;51.10;;;;;;951651;149;27300;-72